sensor_id;sensor_type;location;lat;lon;timestamp;temperature;humidity
80252;DHT22;69562;37.974;23.708;2023-05-13T00:01:42;24.10;31.40
80252;DHT22;69562;37.974;23.708;2023-05-13T00:04:07;24.00;31.30
80252;DHT22;69562;37.974;23.708;2023-05-13T00:06:33;24.00;31.30
80252;DHT22;69562;37.974;23.708;2023-05-13T00:09:00;24.00;31.40
80252;DHT22;69562;37.974;23.708;2023-05-13T00:11:25;24.10;31.50
80252;DHT22;69562;37.974;23.708;2023-05-13T00:13:51;24.00;31.40
80252;DHT22;69562;37.974;23.708;2023-05-13T00:16:17;24.10;31.60
80252;DHT22;69562;37.974;23.708;2023-05-13T00:18:42;24.10;31.60
80252;DHT22;69562;37.974;23.708;2023-05-13T00:21:08;24.10;31.60
80252;DHT22;69562;37.974;23.708;2023-05-13T00:23:33;24.10;31.60
80252;DHT22;69562;37.974;23.708;2023-05-13T00:25:59;24.00;31.60
80252;DHT22;69562;37.974;23.708;2023-05-13T00:28:25;24.10;31.70
80252;DHT22;69562;37.974;23.708;2023-05-13T00:30:50;24.10;31.70
80252;DHT22;69562;37.974;23.708;2023-05-13T00:33:16;24.10;31.70
80252;DHT22;69562;37.974;23.708;2023-05-13T00:35:41;24.00;31.60
80252;DHT22;69562;37.974;23.708;2023-05-13T00:38:07;24.00;31.70
80252;DHT22;69562;37.974;23.708;2023-05-13T00:40:34;24.00;31.70
80252;DHT22;69562;37.974;23.708;2023-05-13T00:43:01;24.10;31.80
80252;DHT22;69562;37.974;23.708;2023-05-13T00:45:26;24.10;31.80
80252;DHT22;69562;37.974;23.708;2023-05-13T00:47:52;24.00;31.80
80252;DHT22;69562;37.974;23.708;2023-05-13T00:50:18;24.10;31.80
80252;DHT22;69562;37.974;23.708;2023-05-13T00:52:44;24.10;31.80
80252;DHT22;69562;37.974;23.708;2023-05-13T00:55:10;24.10;31.80
80252;DHT22;69562;37.974;23.708;2023-05-13T00:57:36;24.10;31.80
80252;DHT22;69562;37.974;23.708;2023-05-13T01:00:02;24.00;31.80
80252;DHT22;69562;37.974;23.708;2023-05-13T01:05:06;24.10;31.90
80252;DHT22;69562;37.974;23.708;2023-05-13T01:07:38;24.00;31.80
80252;DHT22;69562;37.974;23.708;2023-05-13T01:12:37;24.00;31.80
80252;DHT22;69562;37.974;23.708;2023-05-13T01:15:05;24.00;31.80
80252;DHT22;69562;37.974;23.708;2023-05-13T01:17:46;24.00;31.70
80252;DHT22;69562;37.974;23.708;2023-05-13T01:20:12;24.00;31.70
80252;DHT22;69562;37.974;23.708;2023-05-13T01:22:37;24.00;31.60
80252;DHT22;69562;37.974;23.708;2023-05-13T01:25:03;24.00;31.60
80252;DHT22;69562;37.974;23.708;2023-05-13T01:27:29;24.00;31.60
80252;DHT22;69562;37.974;23.708;2023-05-13T01:29:54;24.00;31.60
80252;DHT22;69562;37.974;23.708;2023-05-13T01:32:21;24.00;31.60
80252;DHT22;69562;37.974;23.708;2023-05-13T01:34:47;24.00;31.60
80252;DHT22;69562;37.974;23.708;2023-05-13T01:37:13;24.00;31.60
80252;DHT22;69562;37.974;23.708;2023-05-13T01:39:39;24.00;31.60
80252;DHT22;69562;37.974;23.708;2023-05-13T01:42:05;24.00;31.50
80252;DHT22;69562;37.974;23.708;2023-05-13T01:44:30;24.00;31.50
80252;DHT22;69562;37.974;23.708;2023-05-13T01:46:56;24.00;31.50
80252;DHT22;69562;37.974;23.708;2023-05-13T01:49:21;24.00;31.60
80252;DHT22;69562;37.974;23.708;2023-05-13T01:51:47;24.00;31.50
80252;DHT22;69562;37.974;23.708;2023-05-13T01:54:12;24.00;31.50
80252;DHT22;69562;37.974;23.708;2023-05-13T01:56:38;24.00;31.50
80252;DHT22;69562;37.974;23.708;2023-05-13T01:59:04;24.00;31.50
80252;DHT22;69562;37.974;23.708;2023-05-13T02:01:29;24.00;32.50
80252;DHT22;69562;37.974;23.708;2023-05-13T02:03:58;24.00;31.50
80252;DHT22;69562;37.974;23.708;2023-05-13T02:06:24;24.00;31.50
80252;DHT22;69562;37.974;23.708;2023-05-13T02:08:49;24.00;31.50
80252;DHT22;69562;37.974;23.708;2023-05-13T02:11:15;24.00;31.50
80252;DHT22;69562;37.974;23.708;2023-05-13T02:13:41;24.00;31.50
80252;DHT22;69562;37.974;23.708;2023-05-13T02:16:06;24.00;31.40
80252;DHT22;69562;37.974;23.708;2023-05-13T02:18:32;24.00;31.50
80252;DHT22;69562;37.974;23.708;2023-05-13T02:20:57;24.00;31.40
80252;DHT22;69562;37.974;23.708;2023-05-13T02:23:23;24.00;31.40
80252;DHT22;69562;37.974;23.708;2023-05-13T02:25:48;24.00;31.40
80252;DHT22;69562;37.974;23.708;2023-05-13T02:28:14;24.00;31.40
80252;DHT22;69562;37.974;23.708;2023-05-13T02:30:39;24.00;31.30
80252;DHT22;69562;37.974;23.708;2023-05-13T02:33:06;24.00;31.30
80252;DHT22;69562;37.974;23.708;2023-05-13T02:35:31;24.00;31.40
80252;DHT22;69562;37.974;23.708;2023-05-13T02:37:57;24.00;31.40
80252;DHT22;69562;37.974;23.708;2023-05-13T02:40:22;24.00;31.40
80252;DHT22;69562;37.974;23.708;2023-05-13T02:42:48;24.00;31.40
80252;DHT22;69562;37.974;23.708;2023-05-13T02:45:13;24.00;31.40
80252;DHT22;69562;37.974;23.708;2023-05-13T02:47:39;24.00;31.50
80252;DHT22;69562;37.974;23.708;2023-05-13T02:50:05;24.00;31.50
80252;DHT22;69562;37.974;23.708;2023-05-13T02:52:32;24.00;31.50
80252;DHT22;69562;37.974;23.708;2023-05-13T02:55:00;24.00;31.50
80252;DHT22;69562;37.974;23.708;2023-05-13T02:57:26;24.00;31.50
80252;DHT22;69562;37.974;23.708;2023-05-13T02:59:52;24.00;31.50
80252;DHT22;69562;37.974;23.708;2023-05-13T03:02:17;24.00;31.40
80252;DHT22;69562;37.974;23.708;2023-05-13T03:04:43;24.00;31.50
80252;DHT22;69562;37.974;23.708;2023-05-13T03:07:09;24.00;31.40
80252;DHT22;69562;37.974;23.708;2023-05-13T03:09:34;24.00;31.40
80252;DHT22;69562;37.974;23.708;2023-05-13T03:12:04;23.90;31.30
80252;DHT22;69562;37.974;23.708;2023-05-13T03:14:30;23.90;31.30
80252;DHT22;69562;37.974;23.708;2023-05-13T03:16:55;24.00;31.40
80252;DHT22;69562;37.974;23.708;2023-05-13T03:19:21;24.00;31.40
80252;DHT22;69562;37.974;23.708;2023-05-13T03:21:46;24.00;31.50
80252;DHT22;69562;37.974;23.708;2023-05-13T03:24:12;24.00;32.40
80252;DHT22;69562;37.974;23.708;2023-05-13T03:26:38;24.00;31.40
80252;DHT22;69562;37.974;23.708;2023-05-13T03:29:03;24.00;31.40
80252;DHT22;69562;37.974;23.708;2023-05-13T03:31:29;24.00;31.40
80252;DHT22;69562;37.974;23.708;2023-05-13T03:33:54;24.00;31.40
80252;DHT22;69562;37.974;23.708;2023-05-13T03:36:20;24.00;31.40
80252;DHT22;69562;37.974;23.708;2023-05-13T03:38:45;24.00;31.50
80252;DHT22;69562;37.974;23.708;2023-05-13T03:41:11;24.00;31.40
80252;DHT22;69562;37.974;23.708;2023-05-13T03:43:37;24.00;31.40
80252;DHT22;69562;37.974;23.708;2023-05-13T03:46:02;24.00;31.40
80252;DHT22;69562;37.974;23.708;2023-05-13T03:48:28;24.00;31.40
80252;DHT22;69562;37.974;23.708;2023-05-13T03:50:53;24.20;31.40
80252;DHT22;69562;37.974;23.708;2023-05-13T03:53:19;24.30;31.20
80252;DHT22;69562;37.974;23.708;2023-05-13T03:55:44;24.50;31.10
80252;DHT22;69562;37.974;23.708;2023-05-13T03:58:10;24.60;30.90
80252;DHT22;69562;37.974;23.708;2023-05-13T04:00:37;24.70;30.70
80252;DHT22;69562;37.974;23.708;2023-05-13T04:03:03;24.90;30.50
80252;DHT22;69562;37.974;23.708;2023-05-13T04:05:28;25.10;30.40
80252;DHT22;69562;37.974;23.708;2023-05-13T04:07:54;25.30;30.20
80252;DHT22;69562;37.974;23.708;2023-05-13T04:10:19;25.40;30.00
80252;DHT22;69562;37.974;23.708;2023-05-13T04:12:45;25.60;30.00
80252;DHT22;69562;37.974;23.708;2023-05-13T04:15:10;25.80;29.80
80252;DHT22;69562;37.974;23.708;2023-05-13T04:17:36;26.00;29.70
80252;DHT22;69562;37.974;23.708;2023-05-13T04:20:01;26.10;29.50
80252;DHT22;69562;37.974;23.708;2023-05-13T04:22:27;26.30;29.30
80252;DHT22;69562;37.974;23.708;2023-05-13T04:24:52;26.50;29.30
80252;DHT22;69562;37.974;23.708;2023-05-13T04:27:21;26.70;29.10
80252;DHT22;69562;37.974;23.708;2023-05-13T04:29:47;26.90;28.90
80252;DHT22;69562;37.974;23.708;2023-05-13T04:32:13;27.00;28.80
80252;DHT22;69562;37.974;23.708;2023-05-13T04:34:42;27.30;28.60
80252;DHT22;69562;37.974;23.708;2023-05-13T04:37:07;27.40;28.40
80252;DHT22;69562;37.974;23.708;2023-05-13T04:39:33;27.50;28.30
80252;DHT22;69562;37.974;23.708;2023-05-13T04:41:58;27.60;28.20
80252;DHT22;69562;37.974;23.708;2023-05-13T04:44:24;27.60;28.20
80252;DHT22;69562;37.974;23.708;2023-05-13T04:46:50;27.60;28.20
80252;DHT22;69562;37.974;23.708;2023-05-13T04:49:15;27.50;28.20
80252;DHT22;69562;37.974;23.708;2023-05-13T04:51:41;27.50;28.30
80252;DHT22;69562;37.974;23.708;2023-05-13T04:54:06;27.40;28.30
80252;DHT22;69562;37.974;23.708;2023-05-13T04:56:32;27.20;28.30
80252;DHT22;69562;37.974;23.708;2023-05-13T04:58:58;27.10;28.30
80252;DHT22;69562;37.974;23.708;2023-05-13T05:01:23;27.00;28.40
80252;DHT22;69562;37.974;23.708;2023-05-13T05:03:49;26.90;29.30
80252;DHT22;69562;37.974;23.708;2023-05-13T05:06:14;26.90;28.70
80252;DHT22;69562;37.974;23.708;2023-05-13T05:08:40;26.70;28.70
80252;DHT22;69562;37.974;23.708;2023-05-13T05:11:05;26.60;28.80
80252;DHT22;69562;37.974;23.708;2023-05-13T05:13:31;26.60;28.90
80252;DHT22;69562;37.974;23.708;2023-05-13T05:15:56;26.50;28.90
80252;DHT22;69562;37.974;23.708;2023-05-13T05:18:22;26.50;29.00
80252;DHT22;69562;37.974;23.708;2023-05-13T05:20:48;26.40;29.00
80252;DHT22;69562;37.974;23.708;2023-05-13T05:23:13;26.40;29.10
80252;DHT22;69562;37.974;23.708;2023-05-13T05:25:39;26.30;29.00
80252;DHT22;69562;37.974;23.708;2023-05-13T05:28:04;26.30;29.10
80252;DHT22;69562;37.974;23.708;2023-05-13T05:30:30;26.20;29.10
80252;DHT22;69562;37.974;23.708;2023-05-13T05:33:06;26.20;29.10
80252;DHT22;69562;37.974;23.708;2023-05-13T05:35:32;26.20;29.10
80252;DHT22;69562;37.974;23.708;2023-05-13T05:38:02;26.20;29.10
80252;DHT22;69562;37.974;23.708;2023-05-13T05:40:27;26.20;29.10
80252;DHT22;69562;37.974;23.708;2023-05-13T05:42:53;26.20;29.10
80252;DHT22;69562;37.974;23.708;2023-05-13T05:45:19;26.10;29.10
80252;DHT22;69562;37.974;23.708;2023-05-13T05:47:44;26.10;29.10
80252;DHT22;69562;37.974;23.708;2023-05-13T05:50:10;26.10;29.10
80252;DHT22;69562;37.974;23.708;2023-05-13T05:52:35;26.10;29.20
80252;DHT22;69562;37.974;23.708;2023-05-13T05:55:01;26.10;29.20
80252;DHT22;69562;37.974;23.708;2023-05-13T05:57:27;26.10;29.20
80252;DHT22;69562;37.974;23.708;2023-05-13T05:59:53;26.10;29.20
80252;DHT22;69562;37.974;23.708;2023-05-13T06:02:18;26.10;29.30
80252;DHT22;69562;37.974;23.708;2023-05-13T06:04:44;26.00;29.20
80252;DHT22;69562;37.974;23.708;2023-05-13T06:07:09;25.90;29.20
80252;DHT22;69562;37.974;23.708;2023-05-13T06:09:35;25.90;29.30
80252;DHT22;69562;37.974;23.708;2023-05-13T06:12:00;25.90;29.30
80252;DHT22;69562;37.974;23.708;2023-05-13T06:14:26;25.90;29.40
80252;DHT22;69562;37.974;23.708;2023-05-13T06:16:51;25.80;29.30
80252;DHT22;69562;37.974;23.708;2023-05-13T06:19:17;25.90;29.40
80252;DHT22;69562;37.974;23.708;2023-05-13T06:21:43;25.80;29.40
80252;DHT22;69562;37.974;23.708;2023-05-13T06:24:09;25.80;29.40
80252;DHT22;69562;37.974;23.708;2023-05-13T06:26:35;25.80;29.40
80252;DHT22;69562;37.974;23.708;2023-05-13T06:29:00;25.80;29.40
80252;DHT22;69562;37.974;23.708;2023-05-13T06:31:26;25.80;29.50
80252;DHT22;69562;37.974;23.708;2023-05-13T06:33:51;25.80;29.50
80252;DHT22;69562;37.974;23.708;2023-05-13T06:36:17;25.70;29.40
80252;DHT22;69562;37.974;23.708;2023-05-13T06:38:43;25.70;29.50
80252;DHT22;69562;37.974;23.708;2023-05-13T06:41:08;25.70;29.60
80252;DHT22;69562;37.974;23.708;2023-05-13T06:43:34;25.70;29.60
80252;DHT22;69562;37.974;23.708;2023-05-13T06:45:59;25.60;29.60
80252;DHT22;69562;37.974;23.708;2023-05-13T06:48:25;25.70;29.70
80252;DHT22;69562;37.974;23.708;2023-05-13T06:50:51;25.70;29.70
80252;DHT22;69562;37.974;23.708;2023-05-13T06:53:16;25.60;29.70
80252;DHT22;69562;37.974;23.708;2023-05-13T06:55:42;25.60;29.70
80252;DHT22;69562;37.974;23.708;2023-05-13T06:58:08;25.60;29.70
80252;DHT22;69562;37.974;23.708;2023-05-13T07:00:37;25.60;29.70
80252;DHT22;69562;37.974;23.708;2023-05-13T07:03:06;25.60;29.70
80252;DHT22;69562;37.974;23.708;2023-05-13T07:05:32;25.60;29.70
80252;DHT22;69562;37.974;23.708;2023-05-13T07:07:57;25.60;29.70
80252;DHT22;69562;37.974;23.708;2023-05-13T07:10:23;25.60;29.70
80252;DHT22;69562;37.974;23.708;2023-05-13T07:12:48;25.50;29.70
80252;DHT22;69562;37.974;23.708;2023-05-13T07:15:14;25.60;29.80
80252;DHT22;69562;37.974;23.708;2023-05-13T07:17:41;25.50;29.70
80252;DHT22;69562;37.974;23.708;2023-05-13T07:20:07;25.50;29.80
80252;DHT22;69562;37.974;23.708;2023-05-13T07:22:33;25.50;29.80
80252;DHT22;69562;37.974;23.708;2023-05-13T07:24:59;25.50;29.80
80252;DHT22;69562;37.974;23.708;2023-05-13T07:27:24;25.40;29.80
80252;DHT22;69562;37.974;23.708;2023-05-13T07:29:50;25.50;29.90
80252;DHT22;69562;37.974;23.708;2023-05-13T07:32:16;25.40;29.80
80252;DHT22;69562;37.974;23.708;2023-05-13T07:34:41;25.50;30.00
80252;DHT22;69562;37.974;23.708;2023-05-13T07:37:07;25.40;29.90
80252;DHT22;69562;37.974;23.708;2023-05-13T07:39:32;25.40;29.90
80252;DHT22;69562;37.974;23.708;2023-05-13T07:41:58;25.40;30.90
80252;DHT22;69562;37.974;23.708;2023-05-13T07:44:23;25.40;30.00
80252;DHT22;69562;37.974;23.708;2023-05-13T07:46:49;25.40;30.00
80252;DHT22;69562;37.974;23.708;2023-05-13T07:49:17;25.40;30.00
80252;DHT22;69562;37.974;23.708;2023-05-13T07:51:43;25.40;30.00
80252;DHT22;69562;37.974;23.708;2023-05-13T07:54:08;25.40;30.00
80252;DHT22;69562;37.974;23.708;2023-05-13T07:56:34;25.40;30.00
80252;DHT22;69562;37.974;23.708;2023-05-13T07:59:02;25.40;30.00
80252;DHT22;69562;37.974;23.708;2023-05-13T08:01:27;25.30;30.00
80252;DHT22;69562;37.974;23.708;2023-05-13T08:03:53;25.30;30.00
80252;DHT22;69562;37.974;23.708;2023-05-13T08:06:19;25.30;30.00
80252;DHT22;69562;37.974;23.708;2023-05-13T08:08:45;25.30;30.00
80252;DHT22;69562;37.974;23.708;2023-05-13T08:11:10;25.30;30.00
80252;DHT22;69562;37.974;23.708;2023-05-13T08:13:36;25.30;30.00
80252;DHT22;69562;37.974;23.708;2023-05-13T08:16:02;25.30;30.10
80252;DHT22;69562;37.974;23.708;2023-05-13T08:18:28;25.30;30.20
80252;DHT22;69562;37.974;23.708;2023-05-13T08:20:54;25.30;30.20
80252;DHT22;69562;37.974;23.708;2023-05-13T08:23:20;25.30;30.20
80252;DHT22;69562;37.974;23.708;2023-05-13T08:25:45;25.30;30.30
80252;DHT22;69562;37.974;23.708;2023-05-13T08:28:11;25.30;30.30
80252;DHT22;69562;37.974;23.708;2023-05-13T08:30:36;25.30;30.40
80252;DHT22;69562;37.974;23.708;2023-05-13T08:33:04;25.30;30.50
80252;DHT22;69562;37.974;23.708;2023-05-13T08:35:30;25.30;30.50
80252;DHT22;69562;37.974;23.708;2023-05-13T08:37:56;25.30;30.50
80252;DHT22;69562;37.974;23.708;2023-05-13T08:40:22;25.20;30.40
80252;DHT22;69562;37.974;23.708;2023-05-13T08:42:47;25.20;30.40
80252;DHT22;69562;37.974;23.708;2023-05-13T08:45:15;25.20;30.40
80252;DHT22;69562;37.974;23.708;2023-05-13T08:47:49;25.20;30.50
80252;DHT22;69562;37.974;23.708;2023-05-13T08:50:15;25.20;30.50
80252;DHT22;69562;37.974;23.708;2023-05-13T08:52:41;25.20;30.50
80252;DHT22;69562;37.974;23.708;2023-05-13T08:55:07;25.20;30.50
80252;DHT22;69562;37.974;23.708;2023-05-13T08:57:33;25.20;30.60
80252;DHT22;69562;37.974;23.708;2023-05-13T08:59:58;25.20;30.60
80252;DHT22;69562;37.974;23.708;2023-05-13T09:02:24;25.20;30.60
80252;DHT22;69562;37.974;23.708;2023-05-13T09:04:52;25.20;30.60
80252;DHT22;69562;37.974;23.708;2023-05-13T09:07:17;25.20;30.70
80252;DHT22;69562;37.974;23.708;2023-05-13T09:09:43;25.10;30.60
80252;DHT22;69562;37.974;23.708;2023-05-13T09:12:09;25.10;30.60
80252;DHT22;69562;37.974;23.708;2023-05-13T09:14:35;25.10;30.70
80252;DHT22;69562;37.974;23.708;2023-05-13T09:17:01;25.20;30.80
80252;DHT22;69562;37.974;23.708;2023-05-13T09:19:27;25.10;30.70
80252;DHT22;69562;37.974;23.708;2023-05-13T09:21:52;25.20;30.90
80252;DHT22;69562;37.974;23.708;2023-05-13T09:24:18;25.10;30.80
80252;DHT22;69562;37.974;23.708;2023-05-13T09:26:49;25.10;30.80
80252;DHT22;69562;37.974;23.708;2023-05-13T09:31:41;25.10;30.90
80252;DHT22;69562;37.974;23.708;2023-05-13T09:34:07;25.10;30.90
80252;DHT22;69562;37.974;23.708;2023-05-13T09:36:32;25.10;30.90
80252;DHT22;69562;37.974;23.708;2023-05-13T09:38:58;25.10;30.90
80252;DHT22;69562;37.974;23.708;2023-05-13T09:41:27;25.10;31.00
80252;DHT22;69562;37.974;23.708;2023-05-13T09:43:54;25.10;30.90
80252;DHT22;69562;37.974;23.708;2023-05-13T09:46:20;25.10;30.90
80252;DHT22;69562;37.974;23.708;2023-05-13T09:48:45;25.10;31.00
80252;DHT22;69562;37.974;23.708;2023-05-13T09:51:11;25.10;31.00
80252;DHT22;69562;37.974;23.708;2023-05-13T09:53:39;25.10;31.00
80252;DHT22;69562;37.974;23.708;2023-05-13T09:56:07;25.10;31.10
80252;DHT22;69562;37.974;23.708;2023-05-13T09:58:34;25.10;31.10
80252;DHT22;69562;37.974;23.708;2023-05-13T10:01:00;25.10;31.10
80252;DHT22;69562;37.974;23.708;2023-05-13T10:03:26;25.10;31.20
80252;DHT22;69562;37.974;23.708;2023-05-13T10:05:52;25.10;31.20
80252;DHT22;69562;37.974;23.708;2023-05-13T10:08:19;25.10;31.20
80252;DHT22;69562;37.974;23.708;2023-05-13T10:10:46;25.00;31.10
80252;DHT22;69562;37.974;23.708;2023-05-13T10:13:13;25.00;31.10
80252;DHT22;69562;37.974;23.708;2023-05-13T10:15:49;25.10;31.20
80252;DHT22;69562;37.974;23.708;2023-05-13T10:18:16;25.10;31.20
80252;DHT22;69562;37.974;23.708;2023-05-13T10:20:42;25.10;31.20
80252;DHT22;69562;37.974;23.708;2023-05-13T10:23:08;25.10;31.20
80252;DHT22;69562;37.974;23.708;2023-05-13T10:25:34;25.00;31.20
80252;DHT22;69562;37.974;23.708;2023-05-13T10:28:01;25.00;31.20
80252;DHT22;69562;37.974;23.708;2023-05-13T10:30:27;25.00;31.20
80252;DHT22;69562;37.974;23.708;2023-05-13T10:32:53;25.00;31.20
80252;DHT22;69562;37.974;23.708;2023-05-13T10:35:19;25.00;31.30
80252;DHT22;69562;37.974;23.708;2023-05-13T10:37:53;25.00;31.30
80252;DHT22;69562;37.974;23.708;2023-05-13T10:42:48;25.00;31.40
80252;DHT22;69562;37.974;23.708;2023-05-13T10:45:17;25.00;31.30
80252;DHT22;69562;37.974;23.708;2023-05-13T10:47:42;25.00;31.30
80252;DHT22;69562;37.974;23.708;2023-05-13T10:50:26;25.00;31.30
80252;DHT22;69562;37.974;23.708;2023-05-13T10:52:55;25.00;31.40
80252;DHT22;69562;37.974;23.708;2023-05-13T10:55:21;25.00;31.40
80252;DHT22;69562;37.974;23.708;2023-05-13T11:00:31;25.00;31.40
80252;DHT22;69562;37.974;23.708;2023-05-13T11:03:07;25.00;31.40
80252;DHT22;69562;37.974;23.708;2023-05-13T11:05:32;25.00;31.40
80252;DHT22;69562;37.974;23.708;2023-05-13T11:07:59;25.00;31.50
80252;DHT22;69562;37.974;23.708;2023-05-13T11:10:27;25.00;31.50
80252;DHT22;69562;37.974;23.708;2023-05-13T11:15:58;25.00;31.50
80252;DHT22;69562;37.974;23.708;2023-05-13T11:18:31;25.00;31.60
80252;DHT22;69562;37.974;23.708;2023-05-13T11:21:00;25.00;31.70
80252;DHT22;69562;37.974;23.708;2023-05-13T11:23:26;25.00;31.70
80252;DHT22;69562;37.974;23.708;2023-05-13T11:26:07;25.00;31.80
80252;DHT22;69562;37.974;23.708;2023-05-13T11:31:17;25.00;31.90
80252;DHT22;69562;37.974;23.708;2023-05-13T11:36:30;25.10;32.00
80252;DHT22;69562;37.974;23.708;2023-05-13T11:39:06;25.00;32.00
80252;DHT22;69562;37.974;23.708;2023-05-13T11:41:32;25.00;32.10
80252;DHT22;69562;37.974;23.708;2023-05-13T11:43:58;25.00;32.10
80252;DHT22;69562;37.974;23.708;2023-05-13T11:46:24;25.00;32.10
80252;DHT22;69562;37.974;23.708;2023-05-13T11:48:50;25.00;32.20
80252;DHT22;69562;37.974;23.708;2023-05-13T11:51:19;25.00;32.20
80252;DHT22;69562;37.974;23.708;2023-05-13T11:53:44;25.00;32.20
80252;DHT22;69562;37.974;23.708;2023-05-13T11:56:10;25.00;32.30
80252;DHT22;69562;37.974;23.708;2023-05-13T11:58:37;25.00;32.30
80252;DHT22;69562;37.974;23.708;2023-05-13T12:01:02;25.00;32.30
80252;DHT22;69562;37.974;23.708;2023-05-13T12:03:28;25.00;32.40
80252;DHT22;69562;37.974;23.708;2023-05-13T12:06:02;25.00;32.40
80252;DHT22;69562;37.974;23.708;2023-05-13T12:08:29;25.00;32.40
80252;DHT22;69562;37.974;23.708;2023-05-13T12:10:57;25.00;32.40
80252;DHT22;69562;37.974;23.708;2023-05-13T12:13:23;25.00;32.40
80252;DHT22;69562;37.974;23.708;2023-05-13T12:15:49;25.00;32.40
80252;DHT22;69562;37.974;23.708;2023-05-13T12:18:14;25.00;32.40
80252;DHT22;69562;37.974;23.708;2023-05-13T12:20:40;25.00;32.40
80252;DHT22;69562;37.974;23.708;2023-05-13T12:23:06;25.00;32.40
80252;DHT22;69562;37.974;23.708;2023-05-13T12:25:45;25.00;32.50
80252;DHT22;69562;37.974;23.708;2023-05-13T12:28:15;25.00;32.50
80252;DHT22;69562;37.974;23.708;2023-05-13T12:30:52;25.00;32.50
80252;DHT22;69562;37.974;23.708;2023-05-13T12:33:19;25.00;32.50
80252;DHT22;69562;37.974;23.708;2023-05-13T12:35:46;25.00;32.60
80252;DHT22;69562;37.974;23.708;2023-05-13T12:38:13;25.00;32.60
80252;DHT22;69562;37.974;23.708;2023-05-13T12:40:39;25.00;32.60
80252;DHT22;69562;37.974;23.708;2023-05-13T12:43:05;25.00;32.60
80252;DHT22;69562;37.974;23.708;2023-05-13T12:45:31;25.00;32.60
80252;DHT22;69562;37.974;23.708;2023-05-13T12:47:57;25.00;32.70
80252;DHT22;69562;37.974;23.708;2023-05-13T12:50:23;25.00;32.70
80252;DHT22;69562;37.974;23.708;2023-05-13T12:52:49;24.90;32.70
80252;DHT22;69562;37.974;23.708;2023-05-13T12:55:14;25.00;32.80
80252;DHT22;69562;37.974;23.708;2023-05-13T12:57:41;24.90;32.80
80252;DHT22;69562;37.974;23.708;2023-05-13T13:00:07;25.00;32.80
80252;DHT22;69562;37.974;23.708;2023-05-13T13:02:34;24.90;32.80
80252;DHT22;69562;37.974;23.708;2023-05-13T13:05:00;24.90;32.80
80252;DHT22;69562;37.974;23.708;2023-05-13T13:07:26;24.90;32.90
80252;DHT22;69562;37.974;23.708;2023-05-13T13:09:51;25.00;32.90
80252;DHT22;69562;37.974;23.708;2023-05-13T13:12:17;24.90;32.90
80252;DHT22;69562;37.974;23.708;2023-05-13T13:14:42;25.00;33.00
80252;DHT22;69562;37.974;23.708;2023-05-13T13:17:08;24.90;32.90
80252;DHT22;69562;37.974;23.708;2023-05-13T13:19:33;25.00;33.10
80252;DHT22;69562;37.974;23.708;2023-05-13T13:21:59;24.90;33.10
80252;DHT22;69562;37.974;23.708;2023-05-13T13:24:25;24.90;33.10
80252;DHT22;69562;37.974;23.708;2023-05-13T13:26:50;24.90;33.10
80252;DHT22;69562;37.974;23.708;2023-05-13T13:29:18;25.00;33.20
80252;DHT22;69562;37.974;23.708;2023-05-13T13:31:43;24.90;33.20
80252;DHT22;69562;37.974;23.708;2023-05-13T13:34:10;24.90;33.20
80252;DHT22;69562;37.974;23.708;2023-05-13T13:36:36;24.90;33.20
80252;DHT22;69562;37.974;23.708;2023-05-13T13:39:02;24.90;33.30
80252;DHT22;69562;37.974;23.708;2023-05-13T13:41:27;24.90;33.30
80252;DHT22;69562;37.974;23.708;2023-05-13T13:43:53;24.90;33.30
80252;DHT22;69562;37.974;23.708;2023-05-13T13:46:18;24.90;33.40
80252;DHT22;69562;37.974;23.708;2023-05-13T13:48:44;25.00;33.50
80252;DHT22;69562;37.974;23.708;2023-05-13T13:51:09;24.90;33.40
80252;DHT22;69562;37.974;23.708;2023-05-13T13:53:35;24.90;33.40
80252;DHT22;69562;37.974;23.708;2023-05-13T13:56:00;24.90;33.40
80252;DHT22;69562;37.974;23.708;2023-05-13T13:58:26;24.90;33.50
80252;DHT22;69562;37.974;23.708;2023-05-13T14:00:51;24.90;33.50
80252;DHT22;69562;37.974;23.708;2023-05-13T14:03:17;24.90;33.50
80252;DHT22;69562;37.974;23.708;2023-05-13T14:05:42;24.90;33.50
80252;DHT22;69562;37.974;23.708;2023-05-13T14:08:08;24.90;33.60
80252;DHT22;69562;37.974;23.708;2023-05-13T14:10:34;24.90;33.60
80252;DHT22;69562;37.974;23.708;2023-05-13T14:12:59;24.90;33.70
80252;DHT22;69562;37.974;23.708;2023-05-13T14:15:25;24.90;33.70
80252;DHT22;69562;37.974;23.708;2023-05-13T14:17:53;24.90;33.70
80252;DHT22;69562;37.974;23.708;2023-05-13T14:20:19;24.90;33.70
80252;DHT22;69562;37.974;23.708;2023-05-13T14:22:46;24.90;33.80
80252;DHT22;69562;37.974;23.708;2023-05-13T14:25:12;24.90;33.80
80252;DHT22;69562;37.974;23.708;2023-05-13T14:27:37;24.90;33.90
80252;DHT22;69562;37.974;23.708;2023-05-13T14:30:03;24.90;34.00
80252;DHT22;69562;37.974;23.708;2023-05-13T14:32:29;24.90;34.00
80252;DHT22;69562;37.974;23.708;2023-05-13T14:34:54;24.90;34.10
80252;DHT22;69562;37.974;23.708;2023-05-13T14:37:20;24.90;34.00
80252;DHT22;69562;37.974;23.708;2023-05-13T14:39:46;24.90;34.10
80252;DHT22;69562;37.974;23.708;2023-05-13T14:42:11;24.90;34.10
80252;DHT22;69562;37.974;23.708;2023-05-13T14:44:37;24.90;34.10
80252;DHT22;69562;37.974;23.708;2023-05-13T14:47:02;24.90;34.10
80252;DHT22;69562;37.974;23.708;2023-05-13T14:49:28;24.90;34.10
80252;DHT22;69562;37.974;23.708;2023-05-13T14:51:54;24.90;34.10
80252;DHT22;69562;37.974;23.708;2023-05-13T14:54:19;24.90;34.20
80252;DHT22;69562;37.974;23.708;2023-05-13T14:56:46;24.90;34.60
80252;DHT22;69562;37.974;23.708;2023-05-13T14:59:11;24.90;34.10
80252;DHT22;69562;37.974;23.708;2023-05-13T15:01:37;24.90;34.10
80252;DHT22;69562;37.974;23.708;2023-05-13T15:04:03;24.90;34.20
80252;DHT22;69562;37.974;23.708;2023-05-13T15:06:28;24.90;34.20
80252;DHT22;69562;37.974;23.708;2023-05-13T15:08:54;24.90;34.20
80252;DHT22;69562;37.974;23.708;2023-05-13T15:11:20;24.90;35.20
80252;DHT22;69562;37.974;23.708;2023-05-13T15:13:46;24.90;34.20
80252;DHT22;69562;37.974;23.708;2023-05-13T15:16:11;24.90;34.20
80252;DHT22;69562;37.974;23.708;2023-05-13T15:18:37;24.90;34.30
80252;DHT22;69562;37.974;23.708;2023-05-13T15:21:02;24.80;34.20
80252;DHT22;69562;37.974;23.708;2023-05-13T15:23:28;24.80;34.20
80252;DHT22;69562;37.974;23.708;2023-05-13T15:25:53;24.80;34.20
80252;DHT22;69562;37.974;23.708;2023-05-13T15:28:19;24.80;34.20
80252;DHT22;69562;37.974;23.708;2023-05-13T15:30:44;24.80;34.20